sensor_id;sensor_type;location;lat;lon;timestamp;P1;durP1;ratioP1;P2;durP2;ratioP2
54853;SDS011;40747;49.480;8.658;2022-11-18T00:01:10;0.30;;;0.30;;
54853;SDS011;40747;49.480;8.658;2022-11-18T00:03:37;1.02;;;0.50;;
54853;SDS011;40747;49.480;8.658;2022-11-18T00:06:03;0.40;;;0.35;;
54853;SDS011;40747;49.480;8.658;2022-11-18T00:08:29;1.50;;;0.60;;
54853;SDS011;40747;49.480;8.658;2022-11-18T00:10:55;0.60;;;0.45;;
54853;SDS011;40747;49.480;8.658;2022-11-18T00:13:21;3.40;;;0.73;;
54853;SDS011;40747;49.480;8.658;2022-11-18T00:16:09;7.00;;;0.47;;
54853;SDS011;40747;49.480;8.658;2022-11-18T00:18:36;0.68;;;0.32;;
54853;SDS011;40747;49.480;8.658;2022-11-18T00:21:08;0.85;;;0.50;;
54853;SDS011;40747;49.480;8.658;2022-11-18T00:23:35;0.57;;;0.30;;
54853;SDS011;40747;49.480;8.658;2022-11-18T00:26:05;1.10;;;0.20;;
54853;SDS011;40747;49.480;8.658;2022-11-18T00:28:32;0.55;;;0.43;;
54853;SDS011;40747;49.480;8.658;2022-11-18T00:31:02;0.38;;;0.28;;
54853;SDS011;40747;49.480;8.658;2022-11-18T00:33:31;5.95;;;0.40;;
54853;SDS011;40747;49.480;8.658;2022-11-18T00:35:57;1.17;;;0.38;;
54853;SDS011;40747;49.480;8.658;2022-11-18T00:38:23;0.98;;;0.50;;
54853;SDS011;40747;49.480;8.658;2022-11-18T00:40:57;0.40;;;0.30;;
54853;SDS011;40747;49.480;8.658;2022-11-18T00:43:26;0.68;;;0.30;;
54853;SDS011;40747;49.480;8.658;2022-11-18T00:45:51;0.32;;;0.25;;
54853;SDS011;40747;49.480;8.658;2022-11-18T00:48:16;0.90;;;0.60;;
54853;SDS011;40747;49.480;8.658;2022-11-18T00:50:45;1.40;;;0.70;;
54853;SDS011;40747;49.480;8.658;2022-11-18T00:53:15;1.00;;;0.57;;
54853;SDS011;40747;49.480;8.658;2022-11-18T00:55:42;1.33;;;0.70;;
54853;SDS011;40747;49.480;8.658;2022-11-18T00:58:07;1.65;;;0.52;;
54853;SDS011;40747;49.480;8.658;2022-11-18T01:00:33;0.95;;;0.40;;
54853;SDS011;40747;49.480;8.658;2022-11-18T01:02:59;0.40;;;0.40;;
54853;SDS011;40747;49.480;8.658;2022-11-18T01:05:24;0.38;;;0.38;;
54853;SDS011;40747;49.480;8.658;2022-11-18T01:07:49;0.55;;;0.40;;
54853;SDS011;40747;49.480;8.658;2022-11-18T01:10:15;1.92;;;0.40;;
54853;SDS011;40747;49.480;8.658;2022-11-18T01:12:41;0.57;;;0.57;;
54853;SDS011;40747;49.480;8.658;2022-11-18T01:15:25;1.25;;;0.60;;
54853;SDS011;40747;49.480;8.658;2022-11-18T01:17:50;0.95;;;0.60;;
54853;SDS011;40747;49.480;8.658;2022-11-18T01:20:15;1.75;;;0.60;;
54853;SDS011;40747;49.480;8.658;2022-11-18T01:22:41;0.63;;;0.45;;
54853;SDS011;40747;49.480;8.658;2022-11-18T01:25:06;0.57;;;0.40;;
54853;SDS011;40747;49.480;8.658;2022-11-18T01:27:32;0.98;;;0.40;;
54853;SDS011;40747;49.480;8.658;2022-11-18T01:29:57;3.75;;;0.82;;
54853;SDS011;40747;49.480;8.658;2022-11-18T01:32:23;0.95;;;0.60;;
54853;SDS011;40747;49.480;8.658;2022-11-18T01:34:48;1.10;;;0.32;;
54853;SDS011;40747;49.480;8.658;2022-11-18T01:37:13;2.70;;;0.80;;
54853;SDS011;40747;49.480;8.658;2022-11-18T01:39:39;0.80;;;0.65;;
54853;SDS011;40747;49.480;8.658;2022-11-18T01:42:04;1.13;;;0.93;;
54853;SDS011;40747;49.480;8.658;2022-11-18T01:47:22;1.05;;;0.73;;
54853;SDS011;40747;49.480;8.658;2022-11-18T01:49:51;1.98;;;0.93;;
54853;SDS011;40747;49.480;8.658;2022-11-18T01:52:17;3.60;;;0.93;;
54853;SDS011;40747;49.480;8.658;2022-11-18T01:54:43;1.13;;;0.80;;
54853;SDS011;40747;49.480;8.658;2022-11-18T01:57:15;0.70;;;0.60;;
54853;SDS011;40747;49.480;8.658;2022-11-18T01:59:45;1.45;;;1.33;;
54853;SDS011;40747;49.480;8.658;2022-11-18T02:02:13;2.42;;;0.60;;
54853;SDS011;40747;49.480;8.658;2022-11-18T02:04:40;0.95;;;0.85;;
54853;SDS011;40747;49.480;8.658;2022-11-18T02:07:08;1.38;;;0.60;;
54853;SDS011;40747;49.480;8.658;2022-11-18T02:09:35;3.03;;;0.93;;
54853;SDS011;40747;49.480;8.658;2022-11-18T02:12:01;1.83;;;0.82;;
54853;SDS011;40747;49.480;8.658;2022-11-18T02:14:28;1.10;;;0.73;;
54853;SDS011;40747;49.480;8.658;2022-11-18T02:17:21;0.85;;;0.80;;
54853;SDS011;40747;49.480;8.658;2022-11-18T02:33:52;3.30;;;0.70;;
54853;SDS011;40747;49.480;8.658;2022-11-18T02:36:24;3.90;;;1.08;;
54853;SDS011;40747;49.480;8.658;2022-11-18T02:38:59;3.03;;;0.60;;
54853;SDS011;40747;49.480;8.658;2022-11-18T02:41:29;3.97;;;1.20;;
54853;SDS011;40747;49.480;8.658;2022-11-18T02:44:07;1.15;;;0.80;;
54853;SDS011;40747;49.480;8.658;2022-11-18T02:46:36;2.28;;;1.02;;
54853;SDS011;40747;49.480;8.658;2022-11-18T02:49:05;1.00;;;0.75;;
54853;SDS011;40747;49.480;8.658;2022-11-18T02:51:35;1.15;;;1.02;;
54853;SDS011;40747;49.480;8.658;2022-11-18T02:54:03;6.10;;;0.75;;
54853;SDS011;40747;49.480;8.658;2022-11-18T02:56:31;3.40;;;1.10;;
54853;SDS011;40747;49.480;8.658;2022-11-18T02:58:58;0.75;;;0.68;;
54853;SDS011;40747;49.480;8.658;2022-11-18T03:01:24;0.47;;;0.40;;
54853;SDS011;40747;49.480;8.658;2022-11-18T03:03:53;0.63;;;0.60;;
54853;SDS011;40747;49.480;8.658;2022-11-18T03:06:28;0.88;;;0.80;;
54853;SDS011;40747;49.480;8.658;2022-11-18T03:11:30;1.95;;;1.20;;
54853;SDS011;40747;49.480;8.658;2022-11-18T03:14:08;2.40;;;0.80;;
54853;SDS011;40747;49.480;8.658;2022-11-18T03:19:25;0.70;;;0.60;;
54853;SDS011;40747;49.480;8.658;2022-11-18T03:21:59;0.63;;;0.50;;
54853;SDS011;40747;49.480;8.658;2022-11-18T03:24:32;4.13;;;1.10;;
54853;SDS011;40747;49.480;8.658;2022-11-18T03:27:12;1.13;;;0.60;;
54853;SDS011;40747;49.480;8.658;2022-11-18T03:29:46;2.45;;;0.60;;
54853;SDS011;40747;49.480;8.658;2022-11-18T03:32:17;0.70;;;0.52;;
54853;SDS011;40747;49.480;8.658;2022-11-18T03:34:48;0.68;;;0.52;;
54853;SDS011;40747;49.480;8.658;2022-11-18T03:37:17;2.58;;;1.17;;
54853;SDS011;40747;49.480;8.658;2022-11-18T03:39:49;0.80;;;0.65;;
54853;SDS011;40747;49.480;8.658;2022-11-18T03:42:26;2.38;;;0.60;;
54853;SDS011;40747;49.480;8.658;2022-11-18T03:44:59;1.30;;;0.43;;
54853;SDS011;40747;49.480;8.658;2022-11-18T03:47:31;0.98;;;0.63;;
54853;SDS011;40747;49.480;8.658;2022-11-18T03:50:03;2.33;;;0.60;;
54853;SDS011;40747;49.480;8.658;2022-11-18T03:52:36;1.50;;;0.88;;
54853;SDS011;40747;49.480;8.658;2022-11-18T03:55:05;2.92;;;1.08;;
54853;SDS011;40747;49.480;8.658;2022-11-18T03:57:47;2.75;;;0.63;;
54853;SDS011;40747;49.480;8.658;2022-11-18T04:00:45;1.42;;;1.27;;
54853;SDS011;40747;49.480;8.658;2022-11-18T04:03:14;1.02;;;0.93;;
54853;SDS011;40747;49.480;8.658;2022-11-18T04:05:40;0.70;;;0.70;;
54853;SDS011;40747;49.480;8.658;2022-11-18T04:08:12;3.63;;;1.00;;
54853;SDS011;40747;49.480;8.658;2022-11-18T04:11:00;1.45;;;1.08;;
54853;SDS011;40747;49.480;8.658;2022-11-18T04:13:31;0.55;;;0.50;;
54853;SDS011;40747;49.480;8.658;2022-11-18T04:15:58;4.07;;;1.30;;
54853;SDS011;40747;49.480;8.658;2022-11-18T04:18:24;1.80;;;1.20;;
54853;SDS011;40747;49.480;8.658;2022-11-18T04:20:49;2.35;;;1.23;;
54853;SDS011;40747;49.480;8.658;2022-11-18T04:23:15;2.22;;;1.40;;
54853;SDS011;40747;49.480;8.658;2022-11-18T04:25:40;2.78;;;1.25;;
54853;SDS011;40747;49.480;8.658;2022-11-18T04:28:05;1.48;;;1.30;;
54853;SDS011;40747;49.480;8.658;2022-11-18T04:30:31;1.63;;;1.08;;
54853;SDS011;40747;49.480;8.658;2022-11-18T04:32:56;2.25;;;1.30;;
54853;SDS011;40747;49.480;8.658;2022-11-18T04:35:22;2.08;;;1.27;;
54853;SDS011;40747;49.480;8.658;2022-11-18T04:37:47;1.63;;;1.17;;
54853;SDS011;40747;49.480;8.658;2022-11-18T04:40:13;4.25;;;1.23;;
54853;SDS011;40747;49.480;8.658;2022-11-18T04:42:38;1.63;;;1.20;;
54853;SDS011;40747;49.480;8.658;2022-11-18T04:45:04;2.70;;;1.40;;
54853;SDS011;40747;49.480;8.658;2022-11-18T04:47:30;5.60;;;1.77;;
54853;SDS011;40747;49.480;8.658;2022-11-18T04:49:55;1.13;;;1.02;;
54853;SDS011;40747;49.480;8.658;2022-11-18T04:52:20;2.15;;;1.17;;
54853;SDS011;40747;49.480;8.658;2022-11-18T04:54:45;2.28;;;1.17;;
54853;SDS011;40747;49.480;8.658;2022-11-18T04:57:11;0.77;;;0.60;;
54853;SDS011;40747;49.480;8.658;2022-11-18T04:59:37;0.50;;;0.50;;
54853;SDS011;40747;49.480;8.658;2022-11-18T05:02:02;0.82;;;0.50;;
54853;SDS011;40747;49.480;8.658;2022-11-18T05:04:29;1.15;;;0.70;;
54853;SDS011;40747;49.480;8.658;2022-11-18T05:06:56;4.03;;;0.75;;
54853;SDS011;40747;49.480;8.658;2022-11-18T05:09:23;0.65;;;0.43;;
54853;SDS011;40747;49.480;8.658;2022-11-18T05:11:48;0.68;;;0.50;;
54853;SDS011;40747;49.480;8.658;2022-11-18T05:14:32;0.63;;;0.63;;
54853;SDS011;40747;49.480;8.658;2022-11-18T05:16:59;4.78;;;0.60;;
54853;SDS011;40747;49.480;8.658;2022-11-18T05:19:25;0.50;;;0.50;;
54853;SDS011;40747;49.480;8.658;2022-11-18T05:21:51;0.55;;;0.47;;
54853;SDS011;40747;49.480;8.658;2022-11-18T05:24:17;1.10;;;0.68;;
54853;SDS011;40747;49.480;8.658;2022-11-18T05:26:42;0.47;;;0.47;;
54853;SDS011;40747;49.480;8.658;2022-11-18T05:29:08;2.05;;;1.20;;
54853;SDS011;40747;49.480;8.658;2022-11-18T05:31:33;0.40;;;0.32;;
54853;SDS011;40747;49.480;8.658;2022-11-18T05:33:58;0.70;;;0.10;;
54853;SDS011;40747;49.480;8.658;2022-11-18T05:36:24;2.28;;;0.57;;
54853;SDS011;40747;49.480;8.658;2022-11-18T05:38:49;0.50;;;0.30;;
54853;SDS011;40747;49.480;8.658;2022-11-18T05:41:15;1.30;;;0.43;;
54853;SDS011;40747;49.480;8.658;2022-11-18T05:44:00;2.03;;;0.50;;
54853;SDS011;40747;49.480;8.658;2022-11-18T05:46:26;0.20;;;0.20;;
54853;SDS011;40747;49.480;8.658;2022-11-18T05:48:52;4.47;;;0.82;;
54853;SDS011;40747;49.480;8.658;2022-11-18T05:51:17;1.20;;;0.20;;
54853;SDS011;40747;49.480;8.658;2022-11-18T05:53:43;0.75;;;0.45;;
54853;SDS011;40747;49.480;8.658;2022-11-18T05:56:14;2.15;;;0.40;;
54853;SDS011;40747;49.480;8.658;2022-11-18T05:58:45;0.40;;;0.20;;
54853;SDS011;40747;49.480;8.658;2022-11-18T06:01:11;1.15;;;0.70;;
54853;SDS011;40747;49.480;8.658;2022-11-18T06:03:40;0.70;;;0.65;;
54853;SDS011;40747;49.480;8.658;2022-11-18T06:06:06;2.40;;;0.60;;
54853;SDS011;40747;49.480;8.658;2022-11-18T06:08:35;0.73;;;0.63;;
54853;SDS011;40747;49.480;8.658;2022-11-18T06:11:04;0.82;;;0.50;;
54853;SDS011;40747;49.480;8.658;2022-11-18T06:13:33;2.03;;;0.50;;
54853;SDS011;40747;49.480;8.658;2022-11-18T06:16:03;0.85;;;0.60;;
54853;SDS011;40747;49.480;8.658;2022-11-18T06:18:30;0.50;;;0.30;;
54853;SDS011;40747;49.480;8.658;2022-11-18T06:20:57;0.60;;;0.32;;
54853;SDS011;40747;49.480;8.658;2022-11-18T06:23:28;0.30;;;0.30;;
54853;SDS011;40747;49.480;8.658;2022-11-18T06:25:55;0.93;;;0.68;;
54853;SDS011;40747;49.480;8.658;2022-11-18T06:28:20;0.30;;;0.30;;
54853;SDS011;40747;49.480;8.658;2022-11-18T06:30:47;0.40;;;0.30;;
54853;SDS011;40747;49.480;8.658;2022-11-18T06:33:12;1.60;;;0.90;;
54853;SDS011;40747;49.480;8.658;2022-11-18T06:35:38;3.28;;;0.50;;
54853;SDS011;40747;49.480;8.658;2022-11-18T06:38:03;2.50;;;1.30;;
54853;SDS011;40747;49.480;8.658;2022-11-18T06:40:29;1.48;;;1.17;;
54853;SDS011;40747;49.480;8.658;2022-11-18T06:42:55;1.33;;;0.98;;
54853;SDS011;40747;49.480;8.658;2022-11-18T06:45:39;3.83;;;1.70;;
54853;SDS011;40747;49.480;8.658;2022-11-18T06:48:24;3.05;;;1.40;;
54853;SDS011;40747;49.480;8.658;2022-11-18T06:50:49;3.13;;;1.67;;
54853;SDS011;40747;49.480;8.658;2022-11-18T06:53:14;2.60;;;1.30;;
54853;SDS011;40747;49.480;8.658;2022-11-18T06:55:40;5.30;;;1.42;;
54853;SDS011;40747;49.480;8.658;2022-11-18T06:58:05;1.60;;;0.95;;
54853;SDS011;40747;49.480;8.658;2022-11-18T07:00:30;2.67;;;1.52;;
54853;SDS011;40747;49.480;8.658;2022-11-18T07:02:55;2.55;;;1.10;;
54853;SDS011;40747;49.480;8.658;2022-11-18T07:05:21;3.00;;;1.65;;
54853;SDS011;40747;49.480;8.658;2022-11-18T07:07:46;5.15;;;1.27;;
54853;SDS011;40747;49.480;8.658;2022-11-18T07:10:11;3.42;;;1.48;;
54853;SDS011;40747;49.480;8.658;2022-11-18T07:12:37;3.20;;;1.00;;
54853;SDS011;40747;49.480;8.658;2022-11-18T07:15:02;1.10;;;1.00;;
54853;SDS011;40747;49.480;8.658;2022-11-18T07:17:28;2.40;;;1.15;;
54853;SDS011;40747;49.480;8.658;2022-11-18T07:19:54;1.58;;;1.08;;
54853;SDS011;40747;49.480;8.658;2022-11-18T07:22:20;4.95;;;1.60;;
54853;SDS011;40747;49.480;8.658;2022-11-18T07:24:45;4.28;;;2.63;;
54853;SDS011;40747;49.480;8.658;2022-11-18T07:27:10;3.30;;;2.40;;
54853;SDS011;40747;49.480;8.658;2022-11-18T07:29:36;1.77;;;0.95;;
54853;SDS011;40747;49.480;8.658;2022-11-18T07:32:01;4.05;;;1.80;;
54853;SDS011;40747;49.480;8.658;2022-11-18T07:34:26;2.70;;;2.03;;
54853;SDS011;40747;49.480;8.658;2022-11-18T07:36:51;2.97;;;1.55;;
54853;SDS011;40747;49.480;8.658;2022-11-18T07:39:17;2.22;;;0.80;;
54853;SDS011;40747;49.480;8.658;2022-11-18T07:41:42;1.85;;;0.82;;
54853;SDS011;40747;49.480;8.658;2022-11-18T07:44:11;1.10;;;0.77;;
54853;SDS011;40747;49.480;8.658;2022-11-18T07:46:37;3.97;;;0.90;;
54853;SDS011;40747;49.480;8.658;2022-11-18T07:49:04;1.10;;;0.85;;
54853;SDS011;40747;49.480;8.658;2022-11-18T07:51:33;0.68;;;0.65;;
54853;SDS011;40747;49.480;8.658;2022-11-18T07:54:00;0.80;;;0.60;;
54853;SDS011;40747;49.480;8.658;2022-11-18T07:56:29;0.95;;;0.60;;
54853;SDS011;40747;49.480;8.658;2022-11-18T07:58:54;1.77;;;0.70;;
54853;SDS011;40747;49.480;8.658;2022-11-18T08:01:21;0.50;;;0.50;;
54853;SDS011;40747;49.480;8.658;2022-11-18T08:03:48;4.55;;;0.63;;
54853;SDS011;40747;49.480;8.658;2022-11-18T08:06:15;1.13;;;0.60;;
54853;SDS011;40747;49.480;8.658;2022-11-18T08:08:42;1.70;;;0.75;;
54853;SDS011;40747;49.480;8.658;2022-11-18T08:11:08;4.47;;;2.20;;
54853;SDS011;40747;49.480;8.658;2022-11-18T08:13:35;1.58;;;0.55;;
54853;SDS011;40747;49.480;8.658;2022-11-18T08:16:01;0.85;;;0.63;;
54853;SDS011;40747;49.480;8.658;2022-11-18T08:18:28;1.23;;;0.70;;
54853;SDS011;40747;49.480;8.658;2022-11-18T08:20:55;1.92;;;0.80;;
54853;SDS011;40747;49.480;8.658;2022-11-18T08:23:24;1.42;;;0.85;;
54853;SDS011;40747;49.480;8.658;2022-11-18T08:25:51;3.70;;;1.67;;
54853;SDS011;40747;49.480;8.658;2022-11-18T08:28:16;0.95;;;0.77;;
54853;SDS011;40747;49.480;8.658;2022-11-18T08:30:42;0.35;;;0.35;;
54853;SDS011;40747;49.480;8.658;2022-11-18T08:33:07;1.85;;;1.17;;
54853;SDS011;40747;49.480;8.658;2022-11-18T08:35:33;0.77;;;0.77;;
54853;SDS011;40747;49.480;8.658;2022-11-18T08:37:58;0.95;;;0.80;;
54853;SDS011;40747;49.480;8.658;2022-11-18T08:40:24;1.52;;;0.70;;
54853;SDS011;40747;49.480;8.658;2022-11-18T08:42:50;3.33;;;1.73;;
54853;SDS011;40747;49.480;8.658;2022-11-18T08:45:15;7.30;;;1.85;;
54853;SDS011;40747;49.480;8.658;2022-11-18T08:47:41;5.50;;;1.50;;
54853;SDS011;40747;49.480;8.658;2022-11-18T08:50:07;1.77;;;1.30;;
54853;SDS011;40747;49.480;8.658;2022-11-18T08:52:33;1.38;;;0.90;;
54853;SDS011;40747;49.480;8.658;2022-11-18T08:54:59;2.67;;;1.65;;
54853;SDS011;40747;49.480;8.658;2022-11-18T08:57:24;4.35;;;1.30;;
54853;SDS011;40747;49.480;8.658;2022-11-18T08:59:49;1.45;;;1.20;;
54853;SDS011;40747;49.480;8.658;2022-11-18T09:02:16;3.00;;;1.33;;
54853;SDS011;40747;49.480;8.658;2022-11-18T09:04:43;2.00;;;1.13;;
54853;SDS011;40747;49.480;8.658;2022-11-18T09:07:08;2.35;;;1.20;;
54853;SDS011;40747;49.480;8.658;2022-11-18T09:09:33;1.83;;;1.27;;
54853;SDS011;40747;49.480;8.658;2022-11-18T09:11:59;1.77;;;1.10;;
54853;SDS011;40747;49.480;8.658;2022-11-18T09:14:25;2.47;;;1.20;;
54853;SDS011;40747;49.480;8.658;2022-11-18T09:16:51;1.45;;;1.33;;
54853;SDS011;40747;49.480;8.658;2022-11-18T09:19:16;2.53;;;1.30;;
54853;SDS011;40747;49.480;8.658;2022-11-18T09:21:42;1.85;;;1.27;;
54853;SDS011;40747;49.480;8.658;2022-11-18T09:24:07;3.08;;;1.10;;
54853;SDS011;40747;49.480;8.658;2022-11-18T09:26:35;1.92;;;1.05;;
54853;SDS011;40747;49.480;8.658;2022-11-18T09:29:00;1.13;;;1.02;;
54853;SDS011;40747;49.480;8.658;2022-11-18T09:31:26;2.53;;;1.50;;
54853;SDS011;40747;49.480;8.658;2022-11-18T09:33:51;1.35;;;1.25;;
54853;SDS011;40747;49.480;8.658;2022-11-18T09:36:19;0.77;;;0.68;;
54853;SDS011;40747;49.480;8.658;2022-11-18T09:38:46;2.25;;;1.55;;
54853;SDS011;40747;49.480;8.658;2022-11-18T09:49:47;1.80;;;1.70;;
54853;SDS011;40747;49.480;8.658;2022-11-18T09:52:17;2.58;;;1.50;;
54853;SDS011;40747;49.480;8.658;2022-11-18T09:54:45;2.03;;;1.33;;
54853;SDS011;40747;49.480;8.658;2022-11-18T09:57:15;4.75;;;1.80;;
54853;SDS011;40747;49.480;8.658;2022-11-18T09:59:43;3.40;;;1.63;;
54853;SDS011;40747;49.480;8.658;2022-11-18T10:04:37;2.72;;;2.35;;
54853;SDS011;40747;49.480;8.658;2022-11-18T10:07:02;3.85;;;2.13;;
54853;SDS011;40747;49.480;8.658;2022-11-18T10:09:39;2.78;;;1.90;;
54853;SDS011;40747;49.480;8.658;2022-11-18T10:12:13;4.82;;;2.22;;
54853;SDS011;40747;49.480;8.658;2022-11-18T10:17:15;2.67;;;2.17;;
54853;SDS011;40747;49.480;8.658;2022-11-18T10:20:11;2.28;;;2.05;;
54853;SDS011;40747;49.480;8.658;2022-11-18T10:22:55;3.33;;;2.05;;
54853;SDS011;40747;49.480;8.658;2022-11-18T10:25:40;2.83;;;2.00;;
54853;SDS011;40747;49.480;8.658;2022-11-18T10:28:13;4.00;;;2.40;;
54853;SDS011;40747;49.480;8.658;2022-11-18T10:30:41;5.05;;;2.13;;
54853;SDS011;40747;49.480;8.658;2022-11-18T10:33:17;2.45;;;1.85;;
54853;SDS011;40747;49.480;8.658;2022-11-18T10:35:45;2.72;;;2.40;;
54853;SDS011;40747;49.480;8.658;2022-11-18T10:40:42;2.75;;;2.10;;
54853;SDS011;40747;49.480;8.658;2022-11-18T10:43:11;2.55;;;2.03;;
54853;SDS011;40747;49.480;8.658;2022-11-18T10:45:39;3.33;;;2.35;;
54853;SDS011;40747;49.480;8.658;2022-11-18T10:50:40;4.57;;;2.10;;
54853;SDS011;40747;49.480;8.658;2022-11-18T10:55:59;3.90;;;2.20;;
54853;SDS011;40747;49.480;8.658;2022-11-18T10:58:28;2.97;;;1.90;;
54853;SDS011;40747;49.480;8.658;2022-11-18T11:01:05;3.53;;;2.05;;
54853;SDS011;40747;49.480;8.658;2022-11-18T11:06:34;2.35;;;1.70;;
54853;SDS011;40747;49.480;8.658;2022-11-18T11:09:03;2.50;;;1.85;;
54853;SDS011;40747;49.480;8.658;2022-11-18T11:12:11;4.97;;;2.25;;
54853;SDS011;40747;49.480;8.658;2022-11-18T11:14:40;1.60;;;1.20;;
54853;SDS011;40747;49.480;8.658;2022-11-18T11:17:17;2.00;;;1.30;;
54853;SDS011;40747;49.480;8.658;2022-11-18T11:19:54;2.63;;;1.30;;
54853;SDS011;40747;49.480;8.658;2022-11-18T11:22:27;1.77;;;1.42;;
54853;SDS011;40747;49.480;8.658;2022-11-18T11:24:52;2.40;;;1.48;;
54853;SDS011;40747;49.480;8.658;2022-11-18T11:30:07;2.88;;;1.63;;
54853;SDS011;40747;49.480;8.658;2022-11-18T11:32:41;4.10;;;1.80;;
54853;SDS011;40747;49.480;8.658;2022-11-18T11:36:33;4.32;;;2.20;;
54853;SDS011;40747;49.480;8.658;2022-11-18T11:38:41;6.35;;;1.80;;
54853;SDS011;40747;49.480;8.658;2022-11-18T11:41:28;3.25;;;2.15;;
54853;SDS011;40747;49.480;8.658;2022-11-18T11:46:33;2.13;;;1.42;;
54853;SDS011;40747;49.480;8.658;2022-11-18T11:49:15;2.20;;;1.83;;
54853;SDS011;40747;49.480;8.658;2022-11-18T11:52:17;3.72;;;1.48;;
54853;SDS011;40747;49.480;8.658;2022-11-18T12:00:29;3.05;;;1.25;;
54853;SDS011;40747;49.480;8.658;2022-11-18T12:06:11;4.47;;;1.45;;
54853;SDS011;40747;49.480;8.658;2022-11-18T12:08:37;3.83;;;2.05;;
54853;SDS011;40747;49.480;8.658;2022-11-18T12:11:12;2.40;;;1.45;;
54853;SDS011;40747;49.480;8.658;2022-11-18T12:14:05;2.05;;;1.52;;
54853;SDS011;40747;49.480;8.658;2022-11-18T12:16:45;3.45;;;1.33;;
54853;SDS011;40747;49.480;8.658;2022-11-18T12:19:19;1.52;;;1.15;;
54853;SDS011;40747;49.480;8.658;2022-11-18T12:32:25;2.65;;;1.58;;
54853;SDS011;40747;49.480;8.658;2022-11-18T12:40:29;1.55;;;1.30;;
54853;SDS011;40747;49.480;8.658;2022-11-18T12:42:57;3.45;;;2.13;;
54853;SDS011;40747;49.480;8.658;2022-11-18T12:51:01;2.20;;;1.63;;
54853;SDS011;40747;49.480;8.658;2022-11-18T12:58:48;2.72;;;1.42;;
54853;SDS011;40747;49.480;8.658;2022-11-18T13:01:16;4.18;;;1.30;;
54853;SDS011;40747;49.480;8.658;2022-11-18T13:03:43;2.58;;;1.40;;
54853;SDS011;40747;49.480;8.658;2022-11-18T13:06:25;2.38;;;1.17;;
54853;SDS011;40747;49.480;8.658;2022-11-18T13:08:55;2.05;;;0.90;;
54853;SDS011;40747;49.480;8.658;2022-11-18T13:11:24;3.00;;;1.20;;
54853;SDS011;40747;49.480;8.658;2022-11-18T13:16:59;0.85;;;0.52;;
54853;SDS011;40747;49.480;8.658;2022-11-18T13:19:53;1.30;;;0.85;;
54853;SDS011;40747;49.480;8.658;2022-11-18T13:22:20;0.80;;;0.60;;
54853;SDS011;40747;49.480;8.658;2022-11-18T13:25:05;11.63;;;4.03;;
54853;SDS011;40747;49.480;8.658;2022-11-18T13:27:47;1.55;;;0.70;;
54853;SDS011;40747;49.480;8.658;2022-11-18T13:30:18;1.08;;;0.70;;
54853;SDS011;40747;49.480;8.658;2022-11-18T13:32:44;0.93;;;0.70;;
54853;SDS011;40747;49.480;8.658;2022-11-18T13:40:48;0.52;;;0.50;;
54853;SDS011;40747;49.480;8.658;2022-11-18T13:43:35;3.38;;;0.52;;
54853;SDS011;40747;49.480;8.658;2022-11-18T13:46:08;2.42;;;0.82;;
54853;SDS011;40747;49.480;8.658;2022-11-18T13:48:44;0.85;;;0.47;;
54853;SDS011;40747;49.480;8.658;2022-11-18T13:51:14;3.15;;;0.40;;
54853;SDS011;40747;49.480;8.658;2022-11-18T13:53:40;0.88;;;0.50;;
54853;SDS011;40747;49.480;8.658;2022-11-18T13:58:55;0.90;;;0.50;;
54853;SDS011;40747;49.480;8.658;2022-11-18T14:01:25;0.22;;;0.22;;
54853;SDS011;40747;49.480;8.658;2022-11-18T14:03:56;0.57;;;0.55;;
54853;SDS011;40747;49.480;8.658;2022-11-18T14:06:25;0.25;;;0.25;;
54853;SDS011;40747;49.480;8.658;2022-11-18T14:09:15;0.93;;;0.30;;
54853;SDS011;40747;49.480;8.658;2022-11-18T14:12:05;5.18;;;0.50;;
54853;SDS011;40747;49.480;8.658;2022-11-18T14:14:38;1.88;;;0.57;;
54853;SDS011;40747;49.480;8.658;2022-11-18T14:17:16;0.55;;;0.40;;
54853;SDS011;40747;49.480;8.658;2022-11-18T14:19:51;2.38;;;0.60;;
54853;SDS011;40747;49.480;8.658;2022-11-18T14:22:21;0.50;;;0.45;;
54853;SDS011;40747;49.480;8.658;2022-11-18T14:24:55;0.85;;;0.40;;
54853;SDS011;40747;49.480;8.658;2022-11-18T14:27:42;1.38;;;1.05;;
54853;SDS011;40747;49.480;8.658;2022-11-18T14:35:40;2.67;;;1.20;;
54853;SDS011;40747;49.480;8.658;2022-11-18T14:38:11;3.58;;;1.30;;
54853;SDS011;40747;49.480;8.658;2022-11-18T14:40:38;2.80;;;0.98;;
54853;SDS011;40747;49.480;8.658;2022-11-18T14:43:04;1.92;;;1.05;;
54853;SDS011;40747;49.480;8.658;2022-11-18T14:45:29;1.58;;;1.02;;
54853;SDS011;40747;49.480;8.658;2022-11-18T14:47:55;2.17;;;1.13;;
54853;SDS011;40747;49.480;8.658;2022-11-18T14:50:20;3.50;;;1.45;;
54853;SDS011;40747;49.480;8.658;2022-11-18T14:52:46;3.13;;;1.42;;
54853;SDS011;40747;49.480;8.658;2022-11-18T14:55:11;2.17;;;1.05;;
54853;SDS011;40747;49.480;8.658;2022-11-18T14:57:37;1.08;;;0.90;;
54853;SDS011;40747;49.480;8.658;2022-11-18T15:00:02;1.77;;;1.13;;
54853;SDS011;40747;49.480;8.658;2022-11-18T15:02:29;2.40;;;1.42;;
54853;SDS011;40747;49.480;8.658;2022-11-18T15:04:54;4.68;;;1.42;;
54853;SDS011;40747;49.480;8.658;2022-11-18T15:07:20;5.55;;;1.15;;
54853;SDS011;40747;49.480;8.658;2022-11-18T15:09:46;2.08;;;1.00;;
54853;SDS011;40747;49.480;8.658;2022-11-18T15:12:11;11.25;;;1.92;;
54853;SDS011;40747;49.480;8.658;2022-11-18T15:14:36;2.13;;;1.40;;
54853;SDS011;40747;49.480;8.658;2022-11-18T15:17:02;2.63;;;1.30;;
54853;SDS011;40747;49.480;8.658;2022-11-18T15:19:29;2.78;;;0.95;;
54853;SDS011;40747;49.480;8.658;2022-11-18T15:21:55;1.30;;;0.90;;
54853;SDS011;40747;49.480;8.658;2022-11-18T15:24:20;2.58;;;0.82;;
54853;SDS011;40747;49.480;8.658;2022-11-18T15:26:46;1.75;;;0.98;;
54853;SDS011;40747;49.480;8.658;2022-11-18T15:31:47;3.55;;;1.65;;
54853;SDS011;40747;49.480;8.658;2022-11-18T15:34:13;0.80;;;0.73;;
54853;SDS011;40747;49.480;8.658;2022-11-18T15:36:40;0.98;;;0.90;;
54853;SDS011;40747;49.480;8.658;2022-11-18T15:39:05;2.72;;;1.88;;
54853;SDS011;40747;49.480;8.658;2022-11-18T15:41:30;3.47;;;1.63;;
54853;SDS011;40747;49.480;8.658;2022-11-18T15:43:56;6.40;;;1.80;;
54853;SDS011;40747;49.480;8.658;2022-11-18T15:46:25;2.35;;;1.67;;
54853;SDS011;40747;49.480;8.658;2022-11-18T15:48:52;2.17;;;1.20;;
54853;SDS011;40747;49.480;8.658;2022-11-18T15:51:19;3.83;;;1.13;;
54853;SDS011;40747;49.480;8.658;2022-11-18T15:53:45;2.92;;;1.88;;
54853;SDS011;40747;49.480;8.658;2022-11-18T16:01:33;3.35;;;2.20;;
54853;SDS011;40747;49.480;8.658;2022-11-18T16:06:29;3.97;;;2.80;;
54853;SDS011;40747;49.480;8.658;2022-11-18T16:08:55;4.57;;;2.20;;
54853;SDS011;40747;49.480;8.658;2022-11-18T16:11:21;7.05;;;1.75;;
54853;SDS011;40747;49.480;8.658;2022-11-18T16:14:08;2.10;;;1.45;;
54853;SDS011;40747;49.480;8.658;2022-11-18T16:16:36;6.57;;;1.50;;
54853;SDS011;40747;49.480;8.658;2022-11-18T16:19:04;3.40;;;1.20;;
54853;SDS011;40747;49.480;8.658;2022-11-18T16:21:32;2.40;;;1.65;;
54853;SDS011;40747;49.480;8.658;2022-11-18T16:23:59;1.70;;;1.10;;
54853;SDS011;40747;49.480;8.658;2022-11-18T16:26:27;1.83;;;1.10;;
54853;SDS011;40747;49.480;8.658;2022-11-18T16:28:55;5.20;;;1.85;;
54853;SDS011;40747;49.480;8.658;2022-11-18T16:31:21;9.02;;;1.52;;
54853;SDS011;40747;49.480;8.658;2022-11-18T16:36:43;3.30;;;2.50;;
54853;SDS011;40747;49.480;8.658;2022-11-18T16:41:37;10.25;;;4.88;;
54853;SDS011;40747;49.480;8.658;2022-11-18T16:44:04;12.05;;;5.90;;
54853;SDS011;40747;49.480;8.658;2022-11-18T16:46:32;13.32;;;5.55;;
54853;SDS011;40747;49.480;8.658;2022-11-18T16:48:59;10.65;;;4.50;;
54853;SDS011;40747;49.480;8.658;2022-11-18T16:51:25;8.32;;;4.57;;
54853;SDS011;40747;49.480;8.658;2022-11-18T16:53:54;10.45;;;4.95;;
54853;SDS011;40747;49.480;8.658;2022-11-18T16:56:23;9.13;;;4.65;;
54853;SDS011;40747;49.480;8.658;2022-11-18T16:58:54;12.93;;;7.25;;
54853;SDS011;40747;49.480;8.658;2022-11-18T17:01:21;11.93;;;5.03;;